Time;durP1;ratioP1;P1;durP2;ratioP2;P2;SDS_P1;SDS_P2;PMS_P1;PMS_P2;Temp;Humidity;BMP_temperature;BMP_pressure;BME280_temperature;BME280_humidity;BME280_pressure;Samples;Min_cycle;Max_cycle;Signal;HPM_P1;HPM_P2
2023/10/08 00:02:22;;;;;;;;;;;;;;;20.88;60.40;101365.09;5040507;28;6478;-66
2023/10/08 00:04:50;;;;;;;;;;;;;;;20.89;60.36;101378.09;5043377;28;2152;-67
2023/10/08 00:07:21;;;;;;;;;;;;;;;20.89;60.50;101375.97;5042029;28;2196;-67
2023/10/08 00:09:53;;;;;;;;;;;;;;;20.89;60.33;101372.34;5041923;28;2144;-66
2023/10/08 00:12:19;;;;;;;;;;;;;;;20.88;60.55;101362.97;5039102;28;2235;-67
2023/10/08 00:14:49;;;;;;;;;;;;;;;20.88;60.38;101370.84;5040566;28;2274;-67
2023/10/08 00:17:16;;;;;;;;;;;;;;;20.87;60.45;101364.38;5039960;28;2072;-66
2023/10/08 00:19:43;;;;;;;;;;;;;;;20.88;60.58;101365.09;5040398;28;2191;-67
2023/10/08 00:22:10;;;;;;;;;;;;;;;20.88;60.27;101360.09;5022709;28;2358;-66
2023/10/08 00:24:40;;;;;;;;;;;;;;;20.87;60.33;101367.25;5044118;28;1737;-67
2023/10/08 00:27:07;;;;;;;;;;;;;;;20.87;60.25;101370.13;5042719;28;2274;-67
2023/10/08 00:29:34;;;;;;;;;;;;;;;20.87;60.55;101364.38;5038905;28;2160;-67
2023/10/08 00:32:11;;;;;;;;;;;;;;;20.87;60.36;101375.13;5039815;28;6647;-66
2023/10/08 00:34:41;;;;;;;;;;;;;;;20.87;60.53;101386.66;5026472;28;1625;-67
2023/10/08 00:37:09;;;;;;;;;;;;;;;20.87;60.59;101389.53;5041339;28;2267;-67
2023/10/08 00:39:37;;;;;;;;;;;;;;;20.86;60.27;101385.88;5040380;28;2134;-66
2023/10/08 00:42:12;;;;;;;;;;;;;;;20.86;60.21;101385.88;5038832;28;2255;-67
2023/10/08 00:44:47;;;;;;;;;;;;;;;20.85;60.59;101390.16;5009705;28;2230;-67
2023/10/08 00:47:16;;;;;;;;;;;;;;;20.86;60.68;101388.03;5040746;28;2557;-67
2023/10/08 00:54:51;;;;;;;;;;;;;;;20.85;60.65;101395.91;5041661;28;2144;-66
2023/10/08 00:57:21;;;;;;;;;;;;;;;20.85;60.29;101401.66;5024026;28;2148;-67
2023/10/08 00:59:55;;;;;;;;;;;;;;;20.84;60.30;101394.41;5024315;28;2232;-66
2023/10/08 01:02:26;;;;;;;;;;;;;;;20.84;60.41;101400.16;5039073;28;6290;-66
2023/10/08 01:04:54;;;;;;;;;;;;;;;20.86;60.59;101399.53;5040572;28;2350;-67
2023/10/08 01:07:20;;;;;;;;;;;;;;;20.83;60.37;101401.56;5024367;28;2303;-67
2023/10/08 01:09:50;;;;;;;;;;;;;;;20.84;60.33;101405.91;5024219;28;2330;-67
2023/10/08 01:14:53;;;;;;;;;;;;;;;20.85;60.54;101418.19;5041055;28;2125;-66
2023/10/08 01:17:24;;;;;;;;;;;;;;;20.84;60.37;101422.44;5041102;28;2055;-67
2023/10/08 01:19:56;;;;;;;;;;;;;;;20.84;60.50;101422.44;5017986;28;2067;-67
2023/10/08 01:22:22;;;;;;;;;;;;;;;20.84;60.55;101431.81;5039139;28;2317;-66
2023/10/08 01:24:49;;;;;;;;;;;;;;;20.84;60.28;101428.94;5040589;28;2355;-66
2023/10/08 01:27:24;;;;;;;;;;;;;;;20.84;60.24;101434.72;5037601;28;1940;-66
2023/10/08 01:29:51;;;;;;;;;;;;;;;20.83;60.30;101427.47;5014321;28;2141;-67
2023/10/08 01:32:19;;;;;;;;;;;;;;;20.83;60.19;101432.47;5018063;28;6361;-67
2023/10/08 01:34:46;;;;;;;;;;;;;;;20.83;60.56;101441.13;5039941;28;2185;-66
2023/10/08 01:37:19;;;;;;;;;;;;;;;20.82;60.54;101451.13;5038052;28;2066;-67
2023/10/08 01:39:45;;;;;;;;;;;;;;;20.82;60.42;101449.00;5038969;28;2237;-66
2023/10/08 01:42:18;;;;;;;;;;;;;;;20.82;60.22;101454.78;5039964;28;2118;-67
2023/10/08 01:44:46;;;;;;;;;;;;;;;20.82;60.36;101449.00;5039366;28;2133;-66
2023/10/08 01:47:13;;;;;;;;;;;;;;;20.81;60.46;101447.50;5040041;28;2687;-66
2023/10/08 01:49:42;;;;;;;;;;;;;;;20.82;60.37;101454.78;5040472;28;2170;-66
2023/10/08 01:52:13;;;;;;;;;;;;;;;20.81;60.48;101461.91;5040681;28;2109;-66
2023/10/08 01:54:40;;;;;;;;;;;;;;;20.81;60.30;101464.78;5023649;28;2203;-66
2023/10/08 01:57:09;;;;;;;;;;;;;;;20.81;60.30;101470.53;5037956;28;2130;-66
2023/10/08 01:59:37;;;;;;;;;;;;;;;20.80;60.30;101474.81;5040225;28;2274;-67
2023/10/08 02:02:05;;;;;;;;;;;;;;;20.82;60.27;101485.66;5035852;28;6183;-66
2023/10/08 02:04:33;;;;;;;;;;;;;;;20.81;60.32;101482.03;5038508;28;2356;-67
2023/10/08 02:07:00;;;;;;;;;;;;;;;20.81;60.56;101484.19;5020427;28;2142;-67
2023/10/08 02:09:26;;;;;;;;;;;;;;;20.80;60.47;101494.97;5039916;28;2034;-66
2023/10/08 02:11:53;;;;;;;;;;;;;;;20.80;60.29;101497.84;5022000;28;2145;-66
2023/10/08 02:14:20;;;;;;;;;;;;;;;20.79;60.53;101489.81;5021642;28;2155;-67
2023/10/08 02:16:46;;;;;;;;;;;;;;;20.80;60.07;101488.44;5040621;28;1784;-66
2023/10/08 02:19:13;;;;;;;;;;;;;;;20.79;60.25;101490.56;5040448;28;2270;-67
2023/10/08 02:21:40;;;;;;;;;;;;;;;20.80;60.41;101497.06;5022905;28;2097;-66
2023/10/08 02:24:11;;;;;;;;;;;;;;;20.78;60.59;101497.72;5038289;28;2227;-67
2023/10/08 02:26:37;;;;;;;;;;;;;;;20.79;60.53;101513.59;5036741;28;2211;-67
2023/10/08 02:29:10;;;;;;;;;;;;;;;20.79;60.48;101518.59;5020856;28;2260;-66
2023/10/08 02:31:40;;;;;;;;;;;;;;;20.80;60.25;101543.13;5036214;28;6686;-67
2023/10/08 02:34:10;;;;;;;;;;;;;;;20.79;60.67;101536.63;5037838;28;2337;-66
2023/10/08 02:36:37;;;;;;;;;;;;;;;20.78;60.22;101540.91;5039068;28;2224;-67
2023/10/08 02:39:13;;;;;;;;;;;;;;;20.78;60.52;101540.91;5040259;28;2161;-67
2023/10/08 02:41:41;;;;;;;;;;;;;;;20.78;60.48;101531.53;5039487;28;2036;-67
2023/10/08 02:44:11;;;;;;;;;;;;;;;20.78;60.52;101534.41;5041216;28;2162;-66
2023/10/08 02:46:42;;;;;;;;;;;;;;;20.77;60.45;101525.00;5026831;28;2102;-67
2023/10/08 02:49:11;;;;;;;;;;;;;;;20.77;60.54;101527.88;5043104;28;2158;-67
2023/10/08 02:51:39;;;;;;;;;;;;;;;20.77;60.62;101530.75;5043661;28;2212;-66
2023/10/08 02:54:05;;;;;;;;;;;;;;;20.78;60.54;101540.16;5043349;28;2189;-67
2023/10/08 02:56:32;;;;;;;;;;;;;;;20.77;60.14;101532.88;5042935;28;2133;-66
2023/10/08 02:59:00;;;;;;;;;;;;;;;20.77;60.18;101539.38;5044276;28;2063;-67
2023/10/08 03:01:26;;;;;;;;;;;;;;;20.76;60.25;101532.16;5042208;28;6009;-67
2023/10/08 03:04:03;;;;;;;;;;;;;;;20.76;60.25;101543.66;5021961;28;2421;-66
2023/10/08 03:06:32;;;;;;;;;;;;;;;20.76;60.49;101549.41;5042494;28;2217;-66
2023/10/08 03:09:05;;;;;;;;;;;;;;;20.76;60.39;101537.91;5026410;28;2139;-67
2023/10/08 03:11:31;;;;;;;;;;;;;;;20.76;60.21;101537.91;5042041;28;2257;-66
2023/10/08 03:13:58;;;;;;;;;;;;;;;20.76;60.30;101526.38;5027425;28;2214;-67
2023/10/08 03:16:33;;;;;;;;;;;;;;;20.76;60.32;101531.41;5041559;28;2221;-66
2023/10/08 03:19:01;;;;;;;;;;;;;;;20.75;60.46;101529.91;5043632;28;2043;-67
2023/10/08 03:24:12;;;;;;;;;;;;;;;20.76;60.37;101546.53;5042667;28;2156;-67
2023/10/08 03:26:39;;;;;;;;;;;;;;;20.75;60.48;101558.69;5041460;28;2190;-67
2023/10/08 03:29:08;;;;;;;;;;;;;;;20.75;60.50;101553.66;5041637;28;2011;-66
2023/10/08 03:31:50;;;;;;;;;;;;;;;20.75;60.21;101550.78;5040654;28;6245;-67
2023/10/08 03:34:19;;;;;;;;;;;;;;;20.76;60.25;101560.94;5023168;28;2276;-66
2023/10/08 03:36:46;;;;;;;;;;;;;;;20.76;60.29;101571.69;5041855;28;2314;-66
2023/10/08 03:39:15;;;;;;;;;;;;;;;20.74;60.43;101575.19;5042346;28;2312;-66
2023/10/08 03:41:42;;;;;;;;;;;;;;;20.74;60.16;101580.97;5042592;28;2138;-66
2023/10/08 03:44:16;;;;;;;;;;;;;;;20.74;60.28;101572.31;5041023;28;2315;-67
2023/10/08 03:46:43;;;;;;;;;;;;;;;20.74;60.48;101598.22;5042384;28;2016;-66
2023/10/08 03:51:51;;;;;;;;;;;;;;;20.74;60.21;101624.13;5042092;28;2145;-66
2023/10/08 03:54:19;;;;;;;;;;;;;;;20.75;60.40;101622.00;5039839;28;2333;-66
2023/10/08 03:56:45;;;;;;;;;;;;;;;20.74;60.44;101621.25;5040616;28;2149;-66
2023/10/08 03:59:20;;;;;;;;;;;;;;;20.74;60.42;101614.75;5042562;28;2166;-67
2023/10/08 04:01:49;;;;;;;;;;;;;;;20.73;60.20;101614.00;5023923;28;6380;-66
2023/10/08 04:04:15;;;;;;;;;;;;;;;20.72;60.50;101618.25;5024707;28;2130;-67
2023/10/08 04:06:49;;;;;;;;;;;;;;;20.73;60.28;101630.50;5040952;28;2271;-67
2023/10/08 04:09:23;;;;;;;;;;;;;;;20.72;60.46;101624.00;5041324;28;2137;-66
2023/10/08 04:11:55;;;;;;;;;;;;;;;20.71;60.47;101623.28;5040209;28;2133;-66
2023/10/08 04:14:25;;;;;;;;;;;;;;;20.72;60.27;101635.53;5042729;28;2046;-66
2023/10/08 04:16:51;;;;;;;;;;;;;;;20.73;60.31;101659.28;5023801;28;2173;-66
2023/10/08 04:19:18;;;;;;;;;;;;;;;20.71;60.39;101646.28;5040770;28;2209;-67
2023/10/08 04:21:45;;;;;;;;;;;;;;;20.70;60.38;101639.03;5041486;28;2278;-67
2023/10/08 04:24:14;;;;;;;;;;;;;;;20.71;60.34;101657.06;5040668;28;2334;-66
2023/10/08 04:26:40;;;;;;;;;;;;;;;20.72;60.18;101664.31;5023643;28;2153;-66
2023/10/08 04:29:08;;;;;;;;;;;;;;;20.71;60.34;101669.31;5036840;28;2318;-66
2023/10/08 04:31:38;;;;;;;;;;;;;;;20.70;60.48;101679.31;5025367;28;6645;-66
2023/10/08 04:34:17;;;;;;;;;;;;;;;20.71;60.31;101689.47;5041427;28;2168;-67
2023/10/08 04:36:45;;;;;;;;;;;;;;;20.71;60.25;101700.25;5042339;28;2233;-66
2023/10/08 04:39:21;;;;;;;;;;;;;;;20.69;60.42;101700.13;5040157;28;2286;-67
2023/10/08 04:41:53;;;;;;;;;;;;;;;20.71;60.45;101700.25;5024209;28;2166;-67
2023/10/08 04:44:21;;;;;;;;;;;;;;;20.69;60.16;101682.84;5040543;28;2106;-66
2023/10/08 04:46:52;;;;;;;;;;;;;;;20.69;60.26;101674.22;5022868;28;1957;-66
2023/10/08 04:49:27;;;;;;;;;;;;;;;20.69;60.37;101677.09;5040036;28;2499;-67
2023/10/08 04:51:56;;;;;;;;;;;;;;;20.68;60.49;101676.34;5042036;28;2153;-66
2023/10/08 04:54:29;;;;;;;;;;;;;;;20.70;60.33;101687.22;5038497;28;2228;-66
2023/10/08 04:56:57;;;;;;;;;;;;;;;20.68;60.26;101687.09;5039775;28;2433;-67
2023/10/08 04:59:32;;;;;;;;;;;;;;;20.69;60.52;101705.88;5023692;28;2161;-66
2023/10/08 05:02:12;;;;;;;;;;;;;;;20.68;60.41;101707.25;5041015;28;6037;-67
2023/10/08 05:04:56;;;;;;;;;;;;;;;20.70;60.13;101707.34;5040600;28;2021;-66
2023/10/08 05:10:10;;;;;;;;;;;;;;;20.70;60.40;101724.63;5040399;28;2112;-66
2023/10/08 05:12:50;;;;;;;;;;;;;;;20.68;60.40;101727.38;5041473;28;2140;-66
2023/10/08 05:15:21;;;;;;;;;;;;;;;20.67;60.38;101729.53;5040067;28;2216;-66
2023/10/08 05:20:40;;;;;;;;;;;;;;;20.68;60.38;101756.16;5023094;28;2220;-66
2023/10/08 05:25:58;;;;;;;;;;;;;;;20.66;60.30;101753.94;5041073;28;2082;-66
2023/10/08 05:28:25;;;;;;;;;;;;;;;20.66;60.49;101756.03;5023929;28;2185;-66
2023/10/08 05:31:11;;;;;;;;;;;;;;;20.67;60.23;101766.19;5038600;28;6567;-67
2023/10/08 05:33:59;;;;;;;;;;;;;;;20.67;60.16;101766.19;5039732;28;2302;-66
2023/10/08 05:36:50;;;;;;;;;;;;;;;20.67;60.28;101783.47;5025430;28;2263;-67
2023/10/08 05:42:16;;;;;;;;;;;;;;;20.66;60.39;101790.59;5041258;28;2144;-66
2023/10/08 05:45:13;;;;;;;;;;;;;;;20.65;60.53;101786.22;5038461;28;2344;-67
2023/10/08 05:55:27;;;;;;;;;;;;;;;20.65;60.44;101797.72;5039906;28;2453;-73
2023/10/08 05:58:13;;;;;;;;;;;;;;;20.66;60.19;101799.22;5040280;28;2204;-73
2023/10/08 06:01:07;;;;;;;;;;;;;;;20.65;60.20;101820.75;5037644;28;6206;-73
2023/10/08 06:03:39;;;;;;;;;;;;;;;20.64;60.43;101810.63;5036760;28;2255;-73
2023/10/08 06:11:36;;;;;;;;;;;;;;;20.64;60.38;101848.03;5037168;28;2381;-73
2023/10/08 06:14:12;;;;;;;;;;;;;;;20.63;60.16;101853.03;5040804;28;2107;-72
2023/10/08 06:16:43;;;;;;;;;;;;;;;20.63;60.22;101858.03;5038923;28;2435;-72
2023/10/08 06:19:10;;;;;;;;;;;;;;;20.64;60.23;101876.81;5040491;28;2361;-72
2023/10/08 06:21:39;;;;;;;;;;;;;;;20.64;60.46;101882.56;5042241;28;2327;-72
2023/10/08 06:24:09;;;;;;;;;;;;;;;20.62;60.44;101868.81;5044735;28;2062;-73
2023/10/08 06:26:42;;;;;;;;;;;;;;;20.63;60.14;101872.44;5041562;28;2266;-72
2023/10/08 06:29:27;;;;;;;;;;;;;;;20.63;60.21;101883.94;5040342;28;2341;-72
2023/10/08 06:31:55;;;;;;;;;;;;;;;20.61;60.31;101878.81;5040962;28;6304;-72
2023/10/08 06:34:22;;;;;;;;;;;;;;;20.61;60.48;101890.31;5041465;28;2152;-72
2023/10/08 06:36:53;;;;;;;;;;;;;;;20.62;60.41;101893.97;5042162;28;2266;-72
2023/10/08 06:42:08;;;;;;;;;;;;;;;20.62;60.29;101903.34;5044242;28;2102;-73
2023/10/08 06:44:37;;;;;;;;;;;;;;;20.62;60.31;101902.59;5025292;28;2331;-73
2023/10/08 06:47:09;;;;;;;;;;;;;;;20.62;60.27;101914.09;5042635;28;2117;-72
2023/10/08 06:49:35;;;;;;;;;;;;;;;20.62;60.26;101914.09;5041015;28;2137;-73
2023/10/08 06:52:04;;;;;;;;;;;;;;;20.61;60.41;101924.09;5043166;28;2141;-73
2023/10/08 06:54:30;;;;;;;;;;;;;;;20.60;60.25;101923.34;5044441;28;2059;-73
2023/10/08 06:56:59;;;;;;;;;;;;;;;20.61;60.44;101932.72;5041855;28;2215;-73
2023/10/08 06:59:31;;;;;;;;;;;;;;;20.61;60.35;101929.84;5042024;28;2345;-72
2023/10/08 07:01:58;;;;;;;;;;;;;;;20.61;60.28;101941.38;5042287;28;6351;-72
2023/10/08 07:04:25;;;;;;;;;;;;;;;20.61;60.46;101944.25;5043746;28;2241;-73
2023/10/08 07:06:53;;;;;;;;;;;;;;;20.60;60.43;101951.38;5042800;28;2240;-72
2023/10/08 07:11:55;;;;;;;;;;;;;;;20.59;60.56;101953.53;5041969;28;2368;-73
2023/10/08 07:14:22;;;;;;;;;;;;;;;20.59;60.30;101947.78;5042132;28;2263;-73
2023/10/08 07:16:52;;;;;;;;;;;;;;;20.60;60.29;101957.88;5044128;28;2066;-72
2023/10/08 07:19:18;;;;;;;;;;;;;;;20.60;60.21;101974.41;5040063;28;2188;-72
2023/10/08 07:21:46;;;;;;;;;;;;;;;20.58;60.44;101965.66;5037918;28;2471;-72
2023/10/08 07:24:17;;;;;;;;;;;;;;;20.63;60.36;101973.91;5042492;28;2210;-72
2023/10/08 07:26:46;;;;;;;;;;;;;;;20.63;60.22;101981.78;5041866;28;2355;-71
2023/10/08 07:29:16;;;;;;;;;;;;;;;20.66;60.32;101984.19;5040271;28;2214;-70
2023/10/08 07:31:48;;;;;;;;;;;;;;;20.67;60.15;101985.69;5040739;28;6355;-72
2023/10/08 07:36:50;;;;;;;;;;;;;;;20.68;60.54;101997.94;5042146;28;2444;-72
2023/10/08 07:42:05;;;;;;;;;;;;;;;20.65;60.61;101993.44;5043174;28;1957;-71
2023/10/08 07:44:31;;;;;;;;;;;;;;;20.64;60.57;102009.97;5041108;28;2469;-71
2023/10/08 07:47:01;;;;;;;;;;;;;;;20.64;60.71;101997.69;5041747;28;2327;-72
2023/10/08 07:49:30;;;;;;;;;;;;;;;20.62;60.94;102009.81;5027193;28;2602;-72
2023/10/08 07:51:58;;;;;;;;;;;;;;;20.63;60.46;102002.69;5044088;28;1918;-71
2023/10/08 07:54:27;;;;;;;;;;;;;;;20.62;60.60;102006.94;5040130;28;2281;-71
2023/10/08 07:57:09;;;;;;;;;;;;;;;20.59;60.56;102013.19;5041398;28;2302;-73
2023/10/08 07:59:41;;;;;;;;;;;;;;;20.63;60.67;102019.19;5041580;28;2570;-71
2023/10/08 08:02:11;;;;;;;;;;;;;;;20.66;60.53;102018.72;5024831;28;6378;-68
2023/10/08 08:04:39;;;;;;;;;;;;;;;20.67;60.34;102007.97;5043159;28;2460;-68
2023/10/08 08:07:06;;;;;;;;;;;;;;;20.20;58.38;102022.94;5039290;28;2317;-68
2023/10/08 08:09:37;;;;;;;;;;;;;;;20.11;58.63;102028.75;5024711;28;2189;-67
2023/10/08 08:12:07;;;;;;;;;;;;;;;20.36;58.78;102034.72;5040577;28;2413;-67
2023/10/08 08:14:36;;;;;;;;;;;;;;;20.44;59.41;102043.91;5042186;28;2224;-67
2023/10/08 08:17:13;;;;;;;;;;;;;;;20.49;59.51;102034.16;5040150;28;2452;-68
2023/10/08 08:19:44;;;;;;;;;;;;;;;20.53;59.45;102039.44;5040256;28;2560;-68
2023/10/08 08:22:23;;;;;;;;;;;;;;;20.63;59.50;102039.34;5042971;28;2393;-68
2023/10/08 08:24:54;;;;;;;;;;;;;;;20.66;59.59;102046.72;5043305;28;2157;-69
2023/10/08 08:27:24;;;;;;;;;;;;;;;20.68;59.96;102046.88;5041593;28;2263;-68
2023/10/08 08:29:55;;;;;;;;;;;;;;;20.70;59.51;102047.00;5040889;28;2310;-67
2023/10/08 08:32:23;;;;;;;;;;;;;;;20.67;59.78;102048.25;5040962;28;6117;-68
2023/10/08 08:34:52;;;;;;;;;;;;;;;20.70;59.53;102062.13;5041618;28;2365;-67
2023/10/08 08:37:18;;;;;;;;;;;;;;;20.73;59.65;102063.03;5024570;28;2366;-68
2023/10/08 08:39:45;;;;;;;;;;;;;;;20.73;59.38;102053.63;5042917;28;2345;-68
2023/10/08 08:42:14;;;;;;;;;;;;;;;20.73;59.22;102063.03;5040514;28;2242;-67
2023/10/08 08:44:47;;;;;;;;;;;;;;;20.74;59.81;102063.78;5041992;28;2255;-68
2023/10/08 08:47:19;;;;;;;;;;;;;;;20.73;59.95;102065.94;5040818;28;2485;-68
2023/10/08 08:49:49;;;;;;;;;;;;;;;20.73;59.31;102076.66;5043305;28;2232;-69
2023/10/08 08:52:15;;;;;;;;;;;;;;;20.72;59.37;102067.28;5024206;28;2199;-68
2023/10/08 08:54:44;;;;;;;;;;;;;;;20.73;59.36;102068.03;5041095;28;2393;-71
2023/10/08 08:57:14;;;;;;;;;;;;;;;20.71;59.60;102066.53;5039226;28;2239;-71
2023/10/08 08:59:45;;;;;;;;;;;;;;;20.71;59.67;102071.53;5024374;28;2277;-70
2023/10/08 09:02:14;;;;;;;;;;;;;;;20.71;59.62;102083.06;5040581;28;6336;-70
2023/10/08 09:04:40;;;;;;;;;;;;;;;20.72;59.81;102078.78;5038999;28;2154;-70
2023/10/08 09:07:07;;;;;;;;;;;;;;;20.71;59.83;102083.81;5040937;28;2460;-70
2023/10/08 09:09:35;;;;;;;;;;;;;;;20.71;59.95;102083.06;5041764;28;2376;-70
2023/10/08 09:12:01;;;;;;;;;;;;;;;20.71;59.92;102085.94;5041535;28;1922;-71
2023/10/08 09:14:29;;;;;;;;;;;;;;;20.70;59.95;102082.28;5041707;28;2129;-70
2023/10/08 09:16:56;;;;;;;;;;;;;;;20.71;59.79;102088.81;5042454;28;1816;-70
2023/10/08 09:19:24;;;;;;;;;;;;;;;20.71;59.84;102088.81;5043016;28;1674;-69
2023/10/08 09:22:03;;;;;;;;;;;;;;;20.71;59.63;102097.44;5040297;28;2321;-70
2023/10/08 09:24:39;;;;;;;;;;;;;;;20.76;59.47;102090.56;5040205;28;2338;-70
2023/10/08 09:27:06;;;;;;;;;;;;;;;20.77;59.54;102094.19;5040687;28;2435;-71
2023/10/08 09:29:39;;;;;;;;;;;;;;;20.75;59.54;102106.31;5038187;28;2375;-71
2023/10/08 09:32:09;;;;;;;;;;;;;;;20.74;59.78;102104.84;5034866;28;6307;-70
2023/10/08 09:34:36;;;;;;;;;;;;;;;20.74;59.60;102099.06;5039607;28;2234;-72
2023/10/08 09:37:03;;;;;;;;;;;;;;;20.77;59.73;102097.06;5037371;28;2322;-71
2023/10/08 09:39:33;;;;;;;;;;;;;;;20.77;59.87;102097.81;5039894;28;2263;-71
2023/10/08 09:42:03;;;;;;;;;;;;;;;20.66;58.62;102112.94;5040207;28;2398;-78
2023/10/08 09:44:33;;;;;;;;;;;;;;;20.08;52.88;102112.03;5038091;28;2461;-71
2023/10/08 09:47:02;;;;;;;;;;;;;;;19.89;51.10;102112.16;5036882;28;2279;-71
2023/10/08 09:49:31;;;;;;;;;;;;;;;19.78;48.55;102118.59;5039818;28;2183;-71
2023/10/08 09:52:01;;;;;;;;;;;;;;;19.99;49.57;102121.47;5038933;28;2125;-71
2023/10/08 09:54:32;;;;;;;;;;;;;;;20.20;50.83;102129.38;5042408;28;2065;-71
2023/10/08 09:56:59;;;;;;;;;;;;;;;20.36;51.79;102126.03;5040983;28;2094;-71
2023/10/08 09:59:27;;;;;;;;;;;;;;;20.44;52.45;102120.84;5022382;28;2294;-71
2023/10/08 10:01:54;;;;;;;;;;;;;;;20.47;52.09;102123.22;5040203;28;6339;-71
2023/10/08 10:04:31;;;;;;;;;;;;;;;20.51;52.34;102123.50;5040859;28;2216;-71
2023/10/08 10:06:58;;;;;;;;;;;;;;;20.55;52.85;102128.00;5038987;28;2113;-71
2023/10/08 10:09:25;;;;;;;;;;;;;;;20.56;53.08;102126.66;5037496;28;2154;-71
2023/10/08 10:11:54;;;;;;;;;;;;;;;20.57;53.57;102131.03;5041633;28;2001;-71
2023/10/08 10:14:25;;;;;;;;;;;;;;;20.57;53.70;102126.06;5040789;28;2135;-71
2023/10/08 10:17:08;;;;;;;;;;;;;;;20.56;54.10;102136.06;5038914;28;2109;-71
2023/10/08 10:19:35;;;;;;;;;;;;;;;20.57;54.67;102140.44;5039362;28;2141;-71
2023/10/08 10:22:03;;;;;;;;;;;;;;;20.58;54.88;102132.56;5040141;28;2276;-71
2023/10/08 10:24:33;;;;;;;;;;;;;;;20.58;55.15;102138.31;5039119;28;2129;-71
2023/10/08 10:27:14;;;;;;;;;;;;;;;20.58;55.33;102144.06;5040601;28;2522;-71
2023/10/08 10:29:43;;;;;;;;;;;;;;;20.58;55.64;102139.06;5039542;28;2082;-71
2023/10/08 10:32:10;;;;;;;;;;;;;;;20.59;55.96;102145.56;5038647;28;6133;-70
2023/10/08 10:34:38;;;;;;;;;;;;;;;20.58;55.96;102144.06;5038092;28;2122;-71
2023/10/08 10:37:19;;;;;;;;;;;;;;;20.59;55.91;102157.09;5040298;28;2360;-71
2023/10/08 10:39:59;;;;;;;;;;;;;;;20.59;56.26;102152.09;5039428;28;2133;-71
2023/10/08 10:42:28;;;;;;;;;;;;;;;20.61;56.24;102148.59;5039586;28;2348;-71
2023/10/08 10:44:56;;;;;;;;;;;;;;;20.60;56.46;102141.34;5039697;28;2141;-71
2023/10/08 10:47:26;;;;;;;;;;;;;;;20.60;56.55;102139.22;5037770;28;2161;-71
2023/10/08 10:49:53;;;;;;;;;;;;;;;20.59;55.89;102151.31;5037208;28;2340;-76
2023/10/08 10:52:32;;;;;;;;;;;;;;;20.43;53.33;102157.50;5021097;28;2304;-76
2023/10/08 10:55:00;;;;;;;;;;;;;;;20.26;50.46;102158.53;5023301;28;2149;-71
2023/10/08 10:57:34;;;;;;;;;;;;;;;20.32;49.51;102158.19;5023339;28;2170;-71
2023/10/08 11:00:47;;;;;;;;;;;;;;;20.43;49.95;102154.63;5039501;28;2254;-77
2023/10/08 11:03:16;;;;;;;;;;;;;;;20.20;47.17;102157.34;5039791;28;6100;-75
2023/10/08 11:05:47;;;;;;;;;;;;;;;20.14;44.99;102151.22;5043049;28;2082;-76
2023/10/08 11:08:14;;;;;;;;;;;;;;;19.97;44.42;102144.31;5027342;28;2764;-76
2023/10/08 11:10:47;;;;;;;;;;;;;;;19.99;44.04;102143.72;5044577;28;1591;-76
2023/10/08 11:13:16;;;;;;;;;;;;;;;19.99;42.63;102144.47;5042238;28;2063;-76
2023/10/08 11:15:48;;;;;;;;;;;;;;;19.96;42.04;102139.97;5042200;28;2165;-76
2023/10/08 11:18:18;;;;;;;;;;;;;;;19.95;42.35;102144.22;5041700;28;2261;-75
2023/10/08 11:20:46;;;;;;;;;;;;;;;19.91;41.22;102141.06;5044236;28;2173;-73
2023/10/08 11:23:33;;;;;;;;;;;;;;;19.88;40.55;102136.50;5028408;28;1856;-73
2023/10/08 11:26:02;;;;;;;;;;;;;;;19.91;40.69;102143.94;5043854;28;1788;-73
2023/10/08 11:28:29;;;;;;;;;;;;;;;19.97;41.56;102129.19;5027782;28;1725;-78
2023/10/08 11:30:58;;;;;;;;;;;;;;;19.97;41.79;102129.94;5041489;28;6230;-81
2023/10/08 11:33:27;;;;;;;;;;;;;;;20.07;41.82;102136.41;5043041;28;2340;-72
2023/10/08 11:35:58;;;;;;;;;;;;;;;20.18;42.16;102142.84;5041789;28;2267;-73
2023/10/08 11:38:27;;;;;;;;;;;;;;;20.27;42.38;102134.16;5043284;28;2045;-73
2023/10/08 11:40:56;;;;;;;;;;;;;;;20.36;42.42;102141.19;5040883;28;2212;-72
2023/10/08 11:43:23;;;;;;;;;;;;;;;20.41;42.44;102148.72;5024490;28;2189;-73
2023/10/08 11:45:49;;;;;;;;;;;;;;;20.44;43.13;102141.72;5041341;28;2153;-79
2023/10/08 11:48:28;;;;;;;;;;;;;;;20.32;43.87;102152.44;5026323;28;2257;-78
2023/10/08 11:50:57;;;;;;;;;;;;;;;20.02;42.24;102143.25;5042546;28;2093;-78
2023/10/08 11:53:24;;;;;;;;;;;;;;;19.93;42.23;102144.06;5040896;28;2205;-78
2023/10/08 11:55:56;;;;;;;;;;;;;;;19.92;42.68;102139.69;5043079;28;2130;-73
2023/10/08 11:58:35;;;;;;;;;;;;;;;19.91;41.35;102137.44;5042225;28;2434;-68
2023/10/08 12:01:03;;;;;;;;;;;;;;;20.12;42.53;102151.81;5022418;28;6358;-68
2023/10/08 12:03:31;;;;;;;;;;;;;;;20.22;42.84;102148.88;5037428;28;2176;-68
2023/10/08 12:06:01;;;;;;;;;;;;;;;20.29;42.43;102140.03;5040579;28;2141;-68
2023/10/08 12:08:28;;;;;;;;;;;;;;;20.36;42.96;102146.94;5038818;28;2203;-68
2023/10/08 12:10:54;;;;;;;;;;;;;;;20.40;43.33;102149.34;5041266;28;2012;-68
2023/10/08 12:13:24;;;;;;;;;;;;;;;20.40;43.27;102147.22;5042039;28;2386;-68
2023/10/08 12:15:52;;;;;;;;;;;;;;;20.43;44.17;102151.75;5041210;28;2042;-68
2023/10/08 12:18:24;;;;;;;;;;;;;;;20.46;44.73;102136.13;5021694;28;2144;-68
2023/10/08 12:20:52;;;;;;;;;;;;;;;20.61;45.64;102123.44;5037968;28;2114;-72
2023/10/08 12:23:24;;;;;;;;;;;;;;;20.89;45.15;102115.91;5024199;28;4189;-72
2023/10/08 12:25:55;;;;;;;;;;;;;;;21.07;45.44;102115.53;5035680;28;2404;-72
2023/10/08 12:28:25;;;;;;;;;;;;;;;21.24;46.06;102114.47;5037234;28;2329;-72
2023/10/08 12:30:55;;;;;;;;;;;;;;;21.19;45.75;102118.44;5035383;28;6522;-73
2023/10/08 12:33:24;;;;;;;;;;;;;;;21.24;45.80;102128.88;5037930;28;2216;-77
2023/10/08 12:35:53;;;;;;;;;;;;;;;21.12;46.33;102131.72;5040423;28;2378;-77
2023/10/08 12:38:22;;;;;;;;;;;;;;;21.05;46.30;102126.94;5038403;28;2322;-73
2023/10/08 12:40:52;;;;;;;;;;;;;;;20.93;46.95;102124.78;5036909;28;2344;-75
2023/10/08 12:43:22;;;;;;;;;;;;;;;21.09;46.98;102115.69;5037401;28;2274;-76
2023/10/08 12:45:52;;;;;;;;;;;;;;;21.18;47.28;102111.94;5037335;28;2228;-77
2023/10/08 12:48:19;;;;;;;;;;;;;;;21.27;46.96;102102.41;5022397;28;2324;-79
2023/10/08 12:50:52;;;;;;;;;;;;;;;21.33;47.22;102099.94;5038511;28;2329;-77
2023/10/08 12:53:36;;;;;;;;;;;;;;;21.36;47.69;102120.22;5019655;28;2430;-75
2023/10/08 12:56:05;;;;;;;;;;;;;;;21.19;47.64;102122.09;5035672;28;2538;-73
2023/10/08 12:58:41;;;;;;;;;;;;;;;21.13;48.30;102122.44;5034537;28;2322;-73
2023/10/08 13:01:09;;;;;;;;;;;;;;;21.31;49.31;102108.44;5035300;28;6280;-73
2023/10/08 13:03:41;;;;;;;;;;;;;;;21.48;48.42;102109.47;5041343;28;2322;-72
2023/10/08 13:06:14;;;;;;;;;;;;;;;21.54;48.13;102101.94;5035973;28;2374;-73
2023/10/08 13:08:41;;;;;;;;;;;;;;;21.57;48.05;102113.59;5039324;28;2238;-73
2023/10/08 13:11:07;;;;;;;;;;;;;;;21.59;48.32;102120.25;5035596;28;2173;-73
2023/10/08 13:13:34;;;;;;;;;;;;;;;21.63;48.09;102108.97;5039006;28;2329;-74
2023/10/08 13:16:06;;;;;;;;;;;;;;;21.65;48.31;102111.97;5038794;28;2309;-77
2023/10/08 13:18:34;;;;;;;;;;;;;;;21.50;48.76;102103.84;5039499;28;2278;-77
2023/10/08 13:21:00;;;;;;;;;;;;;;;21.52;48.87;102103.97;5039145;28;2440;-80
2023/10/08 13:23:27;;;;;;;;;;;;;;;21.53;49.09;102111.22;5012693;28;5419;-78
2023/10/08 13:26:03;;;;;;;;;;;;;;;21.53;49.09;102112.00;5037304;28;3618;-82
2023/10/08 13:28:33;;;;;;;;;;;;;;;21.57;48.82;102111.47;5037994;28;2856;-81
2023/10/08 13:31:00;;;;;;;;;;;;;;;22.04;48.29;102104.91;5037255;28;6572;-78
2023/10/08 13:33:28;;;;;;;;;;;;;;;22.24;47.76;102111.91;5039105;28;2297;-79
2023/10/08 13:35:55;;;;;;;;;;;;;;;22.21;47.63;102100.81;5036055;28;2345;-76
2023/10/08 13:38:41;;;;;;;;;;;;;;;21.89;48.14;102097.53;5037818;28;5235;-75
2023/10/08 13:41:18;;;;;;;;;;;;;;;21.55;49.12;102096.94;5035554;28;4312;-76
2023/10/08 13:43:45;;;;;;;;;;;;;;;21.90;48.84;102108.44;5040955;28;2367;-80
2023/10/08 13:46:13;;;;;;;;;;;;;;;21.98;48.35;102108.16;5038435;28;2350;-86
2023/10/08 13:48:40;;;;;;;;;;;;;;;22.03;48.22;102109.16;5035042;28;2357;-79
2023/10/08 13:51:13;;;;;;;;;;;;;;;21.97;48.66;102106.66;5028458;28;2618;-77
2023/10/08 13:53:52;;;;;;;;;;;;;;;21.95;48.55;102103.66;5041317;28;2330;-76